Time;durP1;ratioP1;P1;durP2;ratioP2;P2;SDS_P1;SDS_P2;PMS_P1;PMS_P2;Temp;Humidity;BMP_temperature;BMP_pressure;BME280_temperature;BME280_humidity;BME280_pressure;Samples;Min_cycle;Max_cycle;Signal;HPM_P1;HPM_P2
2023/07/06 00:02:18;;;;;;;6.60;2.83;;;;;;;;;;5024715;28;20133;-63
2023/07/06 00:05:03;;;;;;;3.80;2.15;;;;;;;;;;5032849;28;20032;-65
2023/07/06 00:07:49;;;;;;;3.33;2.22;;;;;;;;;;5017408;28;20082;-70
2023/07/06 00:10:34;;;;;;;4.15;2.20;;;;;;;;;;5021410;28;20065;-74
2023/07/06 00:13:23;;;;;;;3.95;1.73;;;;;;;;;;5032324;28;20036;-74
2023/07/06 00:16:08;;;;;;;2.70;1.70;;;;;;;;;;5034264;28;20037;-74
2023/07/06 00:18:54;;;;;;;2.80;2.20;;;;;;;;;;5031279;28;20032;-74
2023/07/06 00:21:40;;;;;;;3.45;2.00;;;;;;;;;;5049930;28;20459;-74
2023/07/06 00:24:26;;;;;;;3.22;2.03;;;;;;;;;;5044426;28;20033;-71
2023/07/06 00:27:15;;;;;;;3.80;1.92;;;;;;;;;;5051474;28;20047;-66
2023/07/06 00:30:17;;;;;;;3.72;2.17;;;;;;;;;;5039563;28;20033;-65
2023/07/06 00:33:03;;;;;;;3.53;1.80;;;;;;;;;;5045961;28;20082;-65
2023/07/06 00:35:48;;;;;;;3.97;2.05;;;;;;;;;;5026930;28;20086;-66
2023/07/06 00:38:33;;;;;;;4.35;2.15;;;;;;;;;;5034265;28;20033;-66
2023/07/06 00:41:18;;;;;;;3.95;2.05;;;;;;;;;;5030967;28;20152;-67
2023/07/06 00:44:04;;;;;;;3.90;2.20;;;;;;;;;;5026515;28;20036;-70
2023/07/06 00:46:49;;;;;;;3.92;2.55;;;;;;;;;;5043264;28;20028;-69
2023/07/06 00:49:35;;;;;;;5.80;2.30;;;;;;;;;;5022250;28;20361;-69
2023/07/06 00:52:22;;;;;;;5.50;1.85;;;;;;;;;;5034157;28;20029;-72
2023/07/06 00:55:08;;;;;;;4.38;2.38;;;;;;;;;;5039394;28;20541;-70
2023/07/06 00:57:55;;;;;;;3.83;2.00;;;;;;;;;;5035306;28;20397;-68
2023/07/06 01:00:43;;;;;;;4.80;2.42;;;;;;;;;;5033405;28;20514;-71
2023/07/06 01:03:29;;;;;;;5.70;2.30;;;;;;;;;;5032962;28;20136;-76
2023/07/06 01:06:17;;;;;;;4.38;2.17;;;;;;;;;;5020046;28;20542;-76
2023/07/06 01:09:04;;;;;;;5.65;2.35;;;;;;;;;;5032927;28;20028;-75
2023/07/06 01:11:49;;;;;;;3.75;2.13;;;;;;;;;;5032804;28;20031;-76
2023/07/06 01:14:35;;;;;;;4.15;2.42;;;;;;;;;;5039474;28;20119;-76
2023/07/06 01:17:27;;;;;;;4.63;2.47;;;;;;;;;;5049388;28;20075;-76
2023/07/06 01:20:16;;;;;;;5.25;1.80;;;;;;;;;;5034533;28;20029;-68
2023/07/06 01:23:17;;;;;;;4.28;2.05;;;;;;;;;;5042158;28;20084;-65
2023/07/06 01:26:02;;;;;;;5.95;2.40;;;;;;;;;;5045611;28;20033;-66
2023/07/06 01:28:58;;;;;;;3.78;2.20;;;;;;;;;;5030029;28;20033;-66
2023/07/06 01:31:51;;;;;;;3.65;1.80;;;;;;;;;;5031828;28;20040;-67
2023/07/06 01:34:41;;;;;;;5.30;2.15;;;;;;;;;;5039154;28;20032;-69
2023/07/06 01:37:32;;;;;;;5.70;2.00;;;;;;;;;;5019145;28;20060;-76
2023/07/06 01:40:17;;;;;;;4.75;2.08;;;;;;;;;;5058246;28;20020;-69
2023/07/06 01:43:02;;;;;;;3.67;1.92;;;;;;;;;;5011307;28;20050;-69
2023/07/06 01:45:48;;;;;;;5.78;2.83;;;;;;;;;;5011829;28;20121;-70
2023/07/06 01:48:33;;;;;;;5.70;2.17;;;;;;;;;;5025263;28;20033;-72
2023/07/06 01:51:27;;;;;;;4.18;2.13;;;;;;;;;;5028066;28;20040;-71
2023/07/06 01:54:16;;;;;;;4.38;2.42;;;;;;;;;;5026366;28;20033;-70
2023/07/06 01:57:07;;;;;;;4.18;2.08;;;;;;;;;;5036443;28;20438;-64
2023/07/06 01:59:54;;;;;;;2.65;2.00;;;;;;;;;;5042412;28;20037;-74
2023/07/06 02:02:39;;;;;;;5.07;2.30;;;;;;;;;;5032428;28;20025;-75
2023/07/06 02:05:25;;;;;;;2.75;1.90;;;;;;;;;;5018129;28;20081;-75
2023/07/06 02:08:11;;;;;;;4.55;1.95;;;;;;;;;;5039438;28;20167;-75
2023/07/06 02:10:56;;;;;;;6.75;2.38;;;;;;;;;;5038592;28;20063;-77
2023/07/06 02:13:42;;;;;;;4.70;2.00;;;;;;;;;;5036668;28;20038;-71
2023/07/06 02:16:27;;;;;;;3.55;1.83;;;;;;;;;;5022496;28;20052;-64
2023/07/06 02:19:12;;;;;;;4.55;1.98;;;;;;;;;;5032424;28;20036;-71
2023/07/06 02:21:58;;;;;;;3.75;2.22;;;;;;;;;;5029985;28;20034;-71
2023/07/06 02:24:43;;;;;;;5.80;2.47;;;;;;;;;;5012700;28;20072;-71
2023/07/06 02:27:29;;;;;;;3.65;2.08;;;;;;;;;;5041264;28;20025;-70
2023/07/06 02:30:14;;;;;;;5.53;2.40;;;;;;;;;;5021795;28;20051;-71
2023/07/06 02:32:59;;;;;;;3.90;2.40;;;;;;;;;;5034191;28;20071;-64
2023/07/06 02:35:45;;;;;;;3.80;2.15;;;;;;;;;;5009845;28;20018;-68
2023/07/06 02:38:31;;;;;;;4.25;2.40;;;;;;;;;;5029075;28;20030;-70
2023/07/06 02:41:17;;;;;;;4.93;2.25;;;;;;;;;;5012885;28;20433;-69
2023/07/06 02:44:02;;;;;;;4.47;2.80;;;;;;;;;;5024885;28;20089;-69
2023/07/06 02:46:57;;;;;;;4.90;2.47;;;;;;;;;;5041522;28;20041;-70
2023/07/06 02:49:42;;;;;;;6.80;2.92;;;;;;;;;;5029319;28;20041;-69
2023/07/06 02:52:27;;;;;;;4.63;2.70;;;;;;;;;;5011103;28;20431;-75
2023/07/06 02:55:12;;;;;;;5.13;2.10;;;;;;;;;;5040415;28;20040;-70
2023/07/06 02:57:58;;;;;;;5.15;2.50;;;;;;;;;;5031440;28;20107;-70
2023/07/06 03:00:46;;;;;;;5.22;2.47;;;;;;;;;;5034614;28;20043;-69
2023/07/06 03:03:32;;;;;;;3.45;1.98;;;;;;;;;;5034594;28;20477;-71
2023/07/06 03:06:18;;;;;;;4.22;2.20;;;;;;;;;;5027430;28;20029;-70
2023/07/06 03:09:04;;;;;;;7.63;2.45;;;;;;;;;;5030494;28;20435;-71
2023/07/06 03:11:50;;;;;;;3.72;1.70;;;;;;;;;;5022105;28;20017;-75
2023/07/06 03:14:35;;;;;;;3.53;2.10;;;;;;;;;;5019345;28;20030;-62
2023/07/06 03:17:20;;;;;;;3.20;1.92;;;;;;;;;;5038863;28;20033;-65
2023/07/06 03:20:15;;;;;;;5.90;1.98;;;;;;;;;;5039504;28;20415;-64
2023/07/06 03:23:00;;;;;;;2.85;1.90;;;;;;;;;;5017103;28;20033;-63
2023/07/06 03:25:49;;;;;;;3.83;2.50;;;;;;;;;;5032120;28;20468;-63
2023/07/06 03:28:35;;;;;;;5.72;2.50;;;;;;;;;;5035442;28;20512;-73
2023/07/06 03:31:21;;;;;;;3.67;2.60;;;;;;;;;;5035891;28;20022;-72
2023/07/06 03:34:07;;;;;;;4.43;2.45;;;;;;;;;;5034259;28;20032;-72
2023/07/06 03:36:52;;;;;;;4.97;2.58;;;;;;;;;;5032821;28;20038;-70
2023/07/06 03:39:38;;;;;;;4.75;2.63;;;;;;;;;;5031955;28;20103;-71
2023/07/06 03:42:23;;;;;;;3.80;2.35;;;;;;;;;;5030774;28;20462;-70
2023/07/06 03:45:10;;;;;;;4.80;2.47;;;;;;;;;;5025671;28;20546;-72
2023/07/06 03:47:55;;;;;;;5.10;2.30;;;;;;;;;;5018569;28;20049;-70
2023/07/06 03:50:41;;;;;;;5.88;2.60;;;;;;;;;;5007911;28;20049;-70
2023/07/06 03:53:26;;;;;;;3.72;2.38;;;;;;;;;;5028922;28;20358;-70
2023/07/06 03:56:11;;;;;;;8.98;2.78;;;;;;;;;;5043438;28;20036;-71
2023/07/06 03:58:57;;;;;;;3.90;2.42;;;;;;;;;;5025385;28;20025;-68
2023/07/06 04:01:42;;;;;;;5.93;2.38;;;;;;;;;;5009176;28;20057;-68
2023/07/06 04:04:28;;;;;;;5.28;2.55;;;;;;;;;;5028042;28;20242;-65
2023/07/06 04:07:14;;;;;;;4.00;2.40;;;;;;;;;;5044882;28;20036;-70
2023/07/06 04:10:00;;;;;;;5.85;2.30;;;;;;;;;;5026791;28;20033;-69
2023/07/06 04:12:46;;;;;;;4.82;2.35;;;;;;;;;;5047853;28;20029;-69
2023/07/06 04:15:32;;;;;;;3.50;2.03;;;;;;;;;;5023401;28;20033;-70
2023/07/06 04:18:17;;;;;;;6.93;2.47;;;;;;;;;;5035345;28;20041;-70
2023/07/06 04:21:02;;;;;;;5.53;2.53;;;;;;;;;;5030253;28;20029;-70
2023/07/06 04:23:48;;;;;;;5.00;2.33;;;;;;;;;;5033229;28;20080;-70
2023/07/06 04:26:34;;;;;;;5.68;2.70;;;;;;;;;;5019137;28;20061;-66
2023/07/06 04:29:20;;;;;;;3.92;2.42;;;;;;;;;;5034379;28;20037;-64
2023/07/06 04:32:06;;;;;;;2.70;1.88;;;;;;;;;;5020452;28;20035;-64
2023/07/06 04:34:51;;;;;;;6.40;2.45;;;;;;;;;;5033657;28;20037;-65
2023/07/06 04:37:36;;;;;;;3.20;1.80;;;;;;;;;;5023496;28;20086;-65
2023/07/06 04:40:21;;;;;;;4.20;2.55;;;;;;;;;;5005227;28;20109;-65
2023/07/06 04:43:07;;;;;;;2.88;1.92;;;;;;;;;;5038337;28;20044;-76
2023/07/06 04:45:55;;;;;;;3.65;2.20;;;;;;;;;;5031003;28;20396;-65
2023/07/06 04:48:44;;;;;;;5.78;2.58;;;;;;;;;;5013090;28;20068;-67
2023/07/06 04:51:29;;;;;;;7.50;2.90;;;;;;;;;;5015435;28;20118;-67
2023/07/06 04:54:14;;;;;;;4.93;2.17;;;;;;;;;;5021115;28;20176;-68
2023/07/06 04:57:03;;;;;;;5.10;2.20;;;;;;;;;;5045752;28;20047;-66
2023/07/06 04:59:48;;;;;;;4.27;2.40;;;;;;;;;;5016469;28;20045;-70
2023/07/06 05:02:34;;;;;;;4.70;2.17;;;;;;;;;;5020436;28;20266;-62
2023/07/06 05:05:19;;;;;;;5.32;1.98;;;;;;;;;;5043513;28;20044;-62
2023/07/06 05:08:05;;;;;;;3.63;2.10;;;;;;;;;;5027437;28;20021;-64
2023/07/06 05:10:51;;;;;;;6.13;2.70;;;;;;;;;;5034403;28;20179;-63
2023/07/06 05:13:37;;;;;;;4.90;2.63;;;;;;;;;;5045454;28;20068;-61
2023/07/06 05:16:22;;;;;;;5.78;2.28;;;;;;;;;;5035985;28;20032;-64
2023/07/06 05:19:07;;;;;;;6.15;2.63;;;;;;;;;;5028792;28;20060;-64
2023/07/06 05:21:55;;;;;;;5.97;3.58;;;;;;;;;;5030012;28;20025;-76
2023/07/06 05:24:40;;;;;;;6.32;2.55;;;;;;;;;;5016084;28;20034;-74
2023/07/06 05:27:25;;;;;;;4.43;2.33;;;;;;;;;;5029026;28;20035;-76
2023/07/06 05:30:10;;;;;;;3.47;2.33;;;;;;;;;;5022639;28;20563;-74
2023/07/06 05:32:55;;;;;;;6.47;2.45;;;;;;;;;;5017121;28;20037;-75
2023/07/06 05:35:41;;;;;;;4.55;2.42;;;;;;;;;;5033726;28;20593;-75
2023/07/06 05:38:27;;;;;;;4.60;2.17;;;;;;;;;;5039651;28;20068;-75
2023/07/06 05:41:12;;;;;;;5.97;2.63;;;;;;;;;;5044506;28;20041;-74
2023/07/06 05:43:58;;;;;;;5.72;2.55;;;;;;;;;;5019108;28;20068;-75
2023/07/06 05:46:43;;;;;;;5.28;2.40;;;;;;;;;;5014335;28;20068;-74
2023/07/06 05:49:28;;;;;;;4.85;2.60;;;;;;;;;;5020548;28;20030;-74
2023/07/06 05:52:13;;;;;;;4.93;2.70;;;;;;;;;;5045254;28;20383;-73
2023/07/06 05:54:58;;;;;;;4.80;2.30;;;;;;;;;;5042174;28;20191;-75
2023/07/06 05:57:45;;;;;;;6.47;2.63;;;;;;;;;;5026802;28;20215;-71
2023/07/06 06:00:36;;;;;;;4.85;2.40;;;;;;;;;;5017885;28;20033;-74
2023/07/06 06:03:22;;;;;;;8.10;2.67;;;;;;;;;;5031397;28;20477;-72
2023/07/06 06:06:07;;;;;;;5.22;2.70;;;;;;;;;;5031790;28;20060;-72
2023/07/06 06:08:53;;;;;;;6.70;2.60;;;;;;;;;;5044999;28;20124;-72
2023/07/06 06:11:38;;;;;;;6.47;3.10;;;;;;;;;;5022784;28;20033;-71
2023/07/06 06:14:23;;;;;;;6.03;2.28;;;;;;;;;;5044826;28;20025;-69
2023/07/06 06:17:08;;;;;;;11.25;3.50;;;;;;;;;;5030825;28;20021;-70
2023/07/06 06:19:54;;;;;;;4.10;2.15;;;;;;;;;;5039450;28;20060;-71
2023/07/06 06:22:40;;;;;;;4.93;2.38;;;;;;;;;;5029339;28;20022;-70
2023/07/06 06:25:25;;;;;;;6.38;3.03;;;;;;;;;;5028163;28;20084;-72
2023/07/06 06:28:10;;;;;;;6.40;2.72;;;;;;;;;;5037152;28;20022;-72
2023/07/06 06:30:55;;;;;;;7.68;3.05;;;;;;;;;;5022353;28;20076;-71
2023/07/06 06:33:41;;;;;;;10.88;3.90;;;;;;;;;;5038412;28;20432;-65
2023/07/06 06:36:26;;;;;;;5.78;2.63;;;;;;;;;;5034561;28;20116;-68
2023/07/06 06:39:11;;;;;;;6.97;3.00;;;;;;;;;;5021584;28;20029;-68
2023/07/06 06:41:56;;;;;;;6.20;3.03;;;;;;;;;;5029593;28;20083;-67
2023/07/06 06:44:41;;;;;;;6.80;3.05;;;;;;;;;;5035863;28;20486;-67
2023/07/06 06:47:27;;;;;;;5.28;2.95;;;;;;;;;;5032528;28;20373;-68
2023/07/06 06:50:16;;;;;;;8.73;2.80;;;;;;;;;;5034237;28;20123;-65
2023/07/06 06:53:02;;;;;;;8.23;3.70;;;;;;;;;;5054552;28;20062;-70
2023/07/06 06:55:48;;;;;;;6.10;2.92;;;;;;;;;;5040611;28;20412;-71
2023/07/06 06:58:33;;;;;;;5.28;2.45;;;;;;;;;;5046372;28;20063;-71
2023/07/06 07:01:20;;;;;;;8.57;3.22;;;;;;;;;;5045315;28;20060;-70
2023/07/06 07:04:05;;;;;;;8.00;2.97;;;;;;;;;;5040243;28;20028;-70
2023/07/06 07:06:51;;;;;;;7.50;3.40;;;;;;;;;;5043031;28;20028;-73
2023/07/06 07:09:36;;;;;;;5.65;2.40;;;;;;;;;;5014416;28;20035;-71
2023/07/06 07:12:21;;;;;;;7.57;3.08;;;;;;;;;;5046133;28;20037;-66
2023/07/06 07:15:07;;;;;;;9.10;2.45;;;;;;;;;;5024446;28;20036;-65
2023/07/06 07:17:55;;;;;;;6.65;2.38;;;;;;;;;;5049250;28;20070;-64
2023/07/06 07:20:40;;;;;;;5.75;2.70;;;;;;;;;;5039976;28;20055;-65
2023/07/06 07:23:33;;;;;;;8.57;2.67;;;;;;;;;;5044703;28;20123;-65
2023/07/06 07:26:19;;;;;;;8.38;2.00;;;;;;;;;;5017597;28;20034;-72
2023/07/06 07:29:06;;;;;;;4.25;2.53;;;;;;;;;;5048621;28;20040;-72
2023/07/06 07:31:51;;;;;;;5.90;2.58;;;;;;;;;;5037510;28;20128;-63
2023/07/06 07:34:36;;;;;;;8.27;2.17;;;;;;;;;;5042044;28;20535;-64
2023/07/06 07:37:21;;;;;;;7.80;2.58;;;;;;;;;;5049141;28;20096;-65
2023/07/06 07:40:08;;;;;;;4.70;2.15;;;;;;;;;;5033242;28;20599;-66
2023/07/06 07:42:53;;;;;;;6.05;2.65;;;;;;;;;;5055229;28;20045;-65
2023/07/06 07:45:40;;;;;;;12.77;3.42;;;;;;;;;;5032821;28;20040;-75
2023/07/06 07:48:25;;;;;;;7.10;2.00;;;;;;;;;;5043432;28;20033;-65
2023/07/06 07:51:12;;;;;;;4.13;2.13;;;;;;;;;;5040247;28;20123;-66
2023/07/06 07:53:57;;;;;;;4.80;2.35;;;;;;;;;;5044398;28;20460;-64
2023/07/06 07:56:42;;;;;;;3.28;2.10;;;;;;;;;;5047108;28;20032;-70
2023/07/06 07:59:28;;;;;;;3.83;2.17;;;;;;;;;;5046360;28;20540;-64
2023/07/06 08:02:13;;;;;;;5.88;2.10;;;;;;;;;;5048605;28;20039;-64
2023/07/06 08:05:03;;;;;;;3.67;1.80;;;;;;;;;;5043010;28;20032;-69
2023/07/06 08:07:48;;;;;;;5.50;2.17;;;;;;;;;;5015641;28;20112;-64
2023/07/06 08:10:34;;;;;;;7.35;1.98;;;;;;;;;;5032423;28;20518;-63
2023/07/06 08:13:20;;;;;;;4.60;2.35;;;;;;;;;;5036819;28;20131;-64
2023/07/06 08:16:06;;;;;;;5.18;2.70;;;;;;;;;;5034882;28;20036;-64
2023/07/06 08:18:51;;;;;;;4.95;2.00;;;;;;;;;;5020681;28;20021;-63
2023/07/06 08:21:36;;;;;;;6.93;2.47;;;;;;;;;;5018861;28;20028;-67
2023/07/06 08:24:21;;;;;;;6.53;2.72;;;;;;;;;;5047043;28;20035;-75
2023/07/06 08:27:07;;;;;;;4.75;2.20;;;;;;;;;;5044308;28;20115;-64
2023/07/06 08:29:52;;;;;;;4.38;2.05;;;;;;;;;;5025294;28;20459;-65
2023/07/06 08:32:37;;;;;;;4.95;2.53;;;;;;;;;;5031836;28;20533;-64
2023/07/06 08:35:23;;;;;;;6.30;2.35;;;;;;;;;;5036939;28;20445;-61
2023/07/06 08:38:08;;;;;;;6.57;1.77;;;;;;;;;;5046527;28;20375;-64
2023/07/06 08:40:54;;;;;;;6.20;2.95;;;;;;;;;;5018149;28;20033;-66
2023/07/06 08:43:41;;;;;;;4.18;1.98;;;;;;;;;;5029394;28;20049;-70
2023/07/06 08:46:31;;;;;;;5.97;2.10;;;;;;;;;;5028186;28;20068;-69
2023/07/06 08:49:22;;;;;;;7.07;2.22;;;;;;;;;;5023512;28;20033;-70
2023/07/06 08:52:10;;;;;;;6.68;2.40;;;;;;;;;;5038094;28;20070;-70
2023/07/06 08:54:55;;;;;;;4.00;1.90;;;;;;;;;;5043052;28;20039;-69
2023/07/06 08:57:42;;;;;;;4.57;2.20;;;;;;;;;;5024662;28;20033;-71
2023/07/06 09:00:28;;;;;;;6.60;2.85;;;;;;;;;;5030758;28;20026;-79
2023/07/06 09:03:14;;;;;;;6.63;2.50;;;;;;;;;;5014075;28;20032;-70
2023/07/06 09:06:00;;;;;;;6.35;2.47;;;;;;;;;;5033740;28;20384;-70
2023/07/06 09:08:46;;;;;;;2.92;1.90;;;;;;;;;;5046006;28;20120;-70
2023/07/06 09:11:33;;;;;;;7.75;2.90;;;;;;;;;;5016351;28;20065;-71
2023/07/06 09:14:19;;;;;;;4.35;2.45;;;;;;;;;;5019161;28;20112;-70
2023/07/06 09:17:05;;;;;;;3.45;2.20;;;;;;;;;;5022333;28;20035;-82
2023/07/06 09:19:56;;;;;;;4.85;2.10;;;;;;;;;;5031870;28;20067;-75
2023/07/06 09:22:41;;;;;;;4.95;2.25;;;;;;;;;;5044855;28;20041;-81
2023/07/06 09:25:27;;;;;;;4.50;2.33;;;;;;;;;;5026477;28;20064;-82
2023/07/06 09:28:15;;;;;;;4.18;2.42;;;;;;;;;;5034335;28;20029;-81
2023/07/06 09:31:06;;;;;;;3.60;2.00;;;;;;;;;;5034149;28;20032;-80
2023/07/06 09:33:54;;;;;;;6.43;2.35;;;;;;;;;;5047793;28;20036;-80
2023/07/06 09:36:47;;;;;;;5.07;2.72;;;;;;;;;;5038417;28;20030;-79
2023/07/06 09:39:32;;;;;;;6.03;2.47;;;;;;;;;;5041486;28;20556;-67
2023/07/06 09:42:18;;;;;;;3.95;2.25;;;;;;;;;;5035655;28;20372;-70
2023/07/06 09:45:12;;;;;;;6.10;1.80;;;;;;;;;;5037318;28;20078;-70
2023/07/06 09:48:01;;;;;;;6.43;2.38;;;;;;;;;;5016270;28;20024;-69
2023/07/06 09:50:50;;;;;;;4.45;2.10;;;;;;;;;;5035062;28;20041;-69
2023/07/06 09:53:39;;;;;;;4.28;2.20;;;;;;;;;;5051299;28;20110;-75
2023/07/06 09:56:25;;;;;;;3.85;2.20;;;;;;;;;;5023840;28;20079;-74
2023/07/06 09:59:11;;;;;;;5.15;2.30;;;;;;;;;;5010505;28;20077;-70
2023/07/06 10:02:09;;;;;;;3.65;2.00;;;;;;;;;;5035715;28;20047;-69
2023/07/06 10:04:54;;;;;;;5.70;2.22;;;;;;;;;;5028654;28;20059;-69
2023/07/06 10:07:52;;;;;;;3.10;1.88;;;;;;;;;;5030966;28;20025;-70
2023/07/06 10:10:48;;;;;;;5.32;2.08;;;;;;;;;;5037342;28;20032;-70
2023/07/06 10:13:39;;;;;;;8.15;2.28;;;;;;;;;;5022971;28;20040;-69
2023/07/06 10:16:28;;;;;;;6.60;2.63;;;;;;;;;;5030649;28;20383;-76
2023/07/06 10:19:13;;;;;;;5.55;1.83;;;;;;;;;;5036490;28;20013;-76
2023/07/06 10:22:01;;;;;;;5.90;1.98;;;;;;;;;;5037057;28;20092;-75
2023/07/06 10:24:47;;;;;;;3.80;2.20;;;;;;;;;;5036010;28;20032;-74
2023/07/06 10:27:35;;;;;;;4.88;2.90;;;;;;;;;;5028580;28;20032;-74
2023/07/06 10:30:24;;;;;;;4.55;2.42;;;;;;;;;;5036860;28;20397;-70
2023/07/06 10:33:14;;;;;;;3.50;2.13;;;;;;;;;;5036286;28;20033;-72
2023/07/06 10:35:59;;;;;;;;;;;;;;;;;;5024094;28;20430;-71
2023/07/06 10:38:47;;;;;;;4.18;2.47;;;;;;;;;;5037091;28;19912;-71
2023/07/06 10:41:34;;;;;;;5.97;2.20;;;;;;;;;;5035865;28;20064;-70
2023/07/06 10:44:40;;;;;;;5.03;2.70;;;;;;;;;;5026949;28;20531;-73
2023/07/06 10:47:28;;;;;;;4.60;2.38;;;;;;;;;;5035452;28;20392;-70
2023/07/06 10:50:19;;;;;;;6.00;2.67;;;;;;;;;;5022858;28;20025;-69
2023/07/06 10:53:17;;;;;;;3.88;2.35;;;;;;;;;;5035763;28;20021;-76
2023/07/06 10:56:02;;;;;;;4.68;2.20;;;;;;;;;;5032605;28;20025;-75
2023/07/06 10:58:54;;;;;;;5.43;2.53;;;;;;;;;;5037599;28;20052;-74
2023/07/06 11:01:40;;;;;;;6.30;2.58;;;;;;;;;;5050240;28;20096;-74
2023/07/06 11:04:44;;;;;;;4.65;1.98;;;;;;;;;;5036377;28;20021;-75
2023/07/06 11:07:38;;;;;;;9.43;2.50;;;;;;;;;;5035847;28;20029;-73
2023/07/06 11:10:31;;;;;;;2.92;2.03;;;;;;;;;;5011625;28;20029;-70
2023/07/06 11:13:19;;;;;;;4.72;2.05;;;;;;;;;;5036355;28;20036;-72
2023/07/06 11:16:06;;;;;;;5.13;2.10;;;;;;;;;;5039270;28;20074;-69
2023/07/06 11:18:51;;;;;;;3.78;2.38;;;;;;;;;;5038427;28;20041;-71
2023/07/06 11:21:45;;;;;;;4.95;2.00;;;;;;;;;;5052507;28;20045;-70
2023/07/06 11:24:34;;;;;;;6.65;2.83;;;;;;;;;;5035510;28;20127;-69
2023/07/06 11:27:22;;;;;;;2.83;1.70;;;;;;;;;;5041996;28;20123;-70
2023/07/06 11:30:17;;;;;;;5.85;2.38;;;;;;;;;;5038986;28;20025;-71
2023/07/06 11:33:10;;;;;;;4.10;2.30;;;;;;;;;;5035472;28;20056;-72
2023/07/06 11:36:16;;;;;;;4.05;2.47;;;;;;;;;;5035957;28;20035;-70
2023/07/06 11:39:06;;;;;;;4.85;2.40;;;;;;;;;;5035289;28;20029;-71
2023/07/06 11:41:56;;;;;;;7.28;2.58;;;;;;;;;;5021203;28;20550;-72
2023/07/06 11:44:50;;;;;;;6.90;2.45;;;;;;;;;;5035364;28;20037;-73
2023/07/06 11:47:46;;;;;;;3.88;1.95;;;;;;;;;;5027435;28;20020;-76
2023/07/06 11:50:34;;;;;;;5.43;2.30;;;;;;;;;;5033696;28;20205;-75
2023/07/06 11:53:32;;;;;;;3.92;2.17;;;;;;;;;;5034396;28;20036;-75
2023/07/06 11:56:32;;;;;;;3.97;2.10;;;;;;;;;;5041831;28;20028;-74
2023/07/06 11:59:40;;;;;;;5.00;2.42;;;;;;;;;;5021880;28;20495;-76
2023/07/06 12:02:27;;;;;;;3.58;2.25;;;;;;;;;;5035081;28;20123;-73
2023/07/06 12:05:48;;;;;;;5.38;2.30;;;;;;;;;;5034245;28;20064;-82
2023/07/06 12:08:37;;;;;;;10.05;2.30;;;;;;;;;;4987040;28;20025;-72
2023/07/06 12:11:23;;;;;;;4.97;2.33;;;;;;;;;;5034137;28;20029;-72
2023/07/06 12:14:18;;;;;;;4.93;2.53;;;;;;;;;;5034757;28;20017;-71
2023/07/06 12:17:05;;;;;;;4.43;2.13;;;;;;;;;;5036455;28;20365;-74
2023/07/06 12:19:57;;;;;;;6.45;2.95;;;;;;;;;;5024210;28;20469;-71
2023/07/06 12:22:59;;;;;;;5.18;3.25;;;;;;;;;;5034281;28;20098;-70
2023/07/06 12:25:44;;;;;;;4.38;2.10;;;;;;;;;;5033697;28;20040;-81
2023/07/06 12:28:30;;;;;;;4.70;2.15;;;;;;;;;;5048328;28;20112;-80
2023/07/06 12:31:18;;;;;;;4.28;2.35;;;;;;;;;;5033248;28;20025;-79
2023/07/06 12:34:03;;;;;;;4.93;2.40;;;;;;;;;;5034232;28;20033;-81
2023/07/06 12:36:52;;;;;;;3.50;2.38;;;;;;;;;;5034630;28;20024;-80
2023/07/06 12:39:38;;;;;;;4.63;2.28;;;;;;;;;;5035165;28;20023;-72
2023/07/06 12:42:23;;;;;;;4.68;2.35;;;;;;;;;;5018862;28;20025;-70
2023/07/06 12:45:09;;;;;;;6.03;2.28;;;;;;;;;;5034450;28;20395;-75
2023/07/06 12:47:56;;;;;;;5.57;2.90;;;;;;;;;;5034639;28;20048;-75
2023/07/06 12:50:46;;;;;;;5.75;2.13;;;;;;;;;;5001714;28;20025;-76
2023/07/06 12:53:33;;;;;;;7.70;2.65;;;;;;;;;;5033939;28;20434;-76
2023/07/06 12:56:20;;;;;;;4.55;2.15;;;;;;;;;;5040778;28;20025;-75
2023/07/06 12:59:06;;;;;;;4.32;2.33;;;;;;;;;;5034533;28;20102;-70
2023/07/06 13:01:52;;;;;;;6.53;3.05;;;;;;;;;;5033554;28;20529;-75
2023/07/06 13:04:41;;;;;;;5.00;2.25;;;;;;;;;;5034031;28;20095;-75
2023/07/06 13:07:27;;;;;;;8.70;2.70;;;;;;;;;;5037994;28;20035;-75
2023/07/06 13:10:13;;;;;;;4.93;2.08;;;;;;;;;;5040330;28;20028;-74
2023/07/06 13:13:00;;;;;;;3.50;2.00;;;;;;;;;;5028268;28;20083;-76
2023/07/06 13:15:46;;;;;;;5.00;1.90;;;;;;;;;;5033750;28;20036;-76
2023/07/06 13:18:32;;;;;;;4.55;1.80;;;;;;;;;;5039503;28;20047;-71
2023/07/06 13:21:22;;;;;;;4.63;2.42;;;;;;;;;;5020335;28;20056;-75
2023/07/06 13:24:11;;;;;;;5.03;2.35;;;;;;;;;;5019988;28;20025;-75
2023/07/06 13:26:56;;;;;;;8.30;2.40;;;;;;;;;;5040806;28;20040;-75
2023/07/06 13:29:42;;;;;;;3.92;2.40;;;;;;;;;;5034116;28;20031;-75
2023/07/06 13:32:28;;;;;;;3.17;2.15;;;;;;;;;;5034024;28;20025;-75
2023/07/06 13:35:16;;;;;;;4.22;2.10;;;;;;;;;;5019769;28;20035;-79
2023/07/06 13:38:04;;;;;;;4.28;2.15;;;;;;;;;;5033554;28;20037;-81
2023/07/06 13:40:49;;;;;;;5.55;2.72;;;;;;;;;;5020821;28;20472;-80
2023/07/06 13:43:35;;;;;;;4.00;2.45;;;;;;;;;;5034178;28;20411;-80
2023/07/06 13:46:21;;;;;;;3.95;2.33;;;;;;;;;;5048185;28;20419;-80
2023/07/06 13:49:06;;;;;;;6.35;2.67;;;;;;;;;;5033444;28;20518;-81
2023/07/06 13:51:54;;;;;;;3.50;2.33;;;;;;;;;;5034136;28;20035;-80
2023/07/06 13:54:39;;;;;;;4.07;2.00;;;;;;;;;;5035478;28;20025;-71
2023/07/06 13:57:25;;;;;;;4.40;2.05;;;;;;;;;;5020515;28;20044;-70
2023/07/06 14:00:10;;;;;;;4.93;2.22;;;;;;;;;;5034017;28;20074;-72
2023/07/06 14:02:56;;;;;;;5.40;2.28;;;;;;;;;;5027668;28;20112;-70
2023/07/06 14:05:41;;;;;;;2.78;2.00;;;;;;;;;;5016264;28;20025;-71
2023/07/06 14:08:27;;;;;;;4.22;2.03;;;;;;;;;;5037342;28;20025;-71
2023/07/06 14:11:13;;;;;;;4.07;2.17;;;;;;;;;;5031410;28;20037;-81
2023/07/06 14:13:59;;;;;;;4.47;2.42;;;;;;;;;;5046843;28;20121;-75
2023/07/06 14:16:45;;;;;;;3.65;2.00;;;;;;;;;;5037679;28;20021;-68
2023/07/06 14:19:33;;;;;;;4.07;2.50;;;;;;;;;;5032106;28;20040;-71
2023/07/06 14:22:21;;;;;;;6.32;2.38;;;;;;;;;;5046815;28;20052;-69
2023/07/06 14:25:13;;;;;;;3.97;2.03;;;;;;;;;;5036288;28;20036;-70
2023/07/06 14:27:58;;;;;;;4.80;2.22;;;;;;;;;;5046873;28;20188;-68
2023/07/06 14:30:49;;;;;;;5.72;3.05;;;;;;;;;;5041513;28;20067;-69
2023/07/06 14:33:35;;;;;;;5.88;2.53;;;;;;;;;;5022171;28;20048;-81
2023/07/06 14:36:20;;;;;;;9.57;2.47;;;;;;;;;;5037406;28;20075;-78
2023/07/06 14:39:07;;;;;;;6.85;2.80;;;;;;;;;;5036228;28;20017;-81
2023/07/06 14:41:52;;;;;;;3.03;1.95;;;;;;;;;;5036953;28;20033;-81
2023/07/06 14:44:38;;;;;;;5.82;3.03;;;;;;;;;;5036897;28;20068;-80
2023/07/06 14:47:23;;;;;;;5.70;2.22;;;;;;;;;;5037848;28;20055;-83
2023/07/06 14:50:09;;;;;;;4.28;2.30;;;;;;;;;;5045546;28;20028;-72
2023/07/06 14:52:55;;;;;;;4.53;2.38;;;;;;;;;;5021914;28;20104;-70
2023/07/06 14:55:44;;;;;;;5.65;2.90;;;;;;;;;;5036118;28;20687;-73
2023/07/06 14:58:29;;;;;;;4.40;2.10;;;;;;;;;;5023968;28;20028;-71
2023/07/06 15:01:15;;;;;;;5.82;2.55;;;;;;;;;;5023037;28;20025;-72
2023/07/06 15:04:00;;;;;;;6.20;2.15;;;;;;;;;;5033524;28;20060;-71
2023/07/06 15:06:45;;;;;;;6.75;2.63;;;;;;;;;;5023267;28;20033;-78
2023/07/06 15:09:31;;;;;;;9.02;2.83;;;;;;;;;;5033001;28;20417;-70
2023/07/06 15:12:17;;;;;;;4.93;2.60;;;;;;;;;;5021823;28;20029;-68
2023/07/06 15:15:03;;;;;;;7.53;2.55;;;;;;;;;;5021442;28;20021;-70
2023/07/06 15:17:49;;;;;;;4.75;2.08;;;;;;;;;;5047699;28;20499;-69
2023/07/06 15:20:35;;;;;;;4.90;2.55;;;;;;;;;;5040859;28;20075;-67
2023/07/06 15:23:20;;;;;;;4.30;2.60;;;;;;;;;;5035124;28;20025;-68
2023/07/06 15:26:05;;;;;;;8.13;2.45;;;;;;;;;;5036645;28;20060;-79
2023/07/06 15:28:52;;;;;;;5.80;2.47;;;;;;;;;;5041741;28;20045;-74
2023/07/06 15:31:37;;;;;;;3.40;2.13;;;;;;;;;;5034787;28;20032;-74
2023/07/06 15:34:23;;;;;;;6.32;2.58;;;;;;;;;;5034322;28;20448;-74
2023/07/06 15:37:08;;;;;;;4.68;2.40;;;;;;;;;;5038778;28;20078;-74
2023/07/06 15:39:56;;;;;;;18.63;2.78;;;;;;;;;;5047649;28;20496;-76
2023/07/06 15:42:42;;;;;;;4.60;2.97;;;;;;;;;;5030047;28;20025;-76
2023/07/06 15:45:27;;;;;;;5.22;2.35;;;;;;;;;;5034620;28;20088;-72
2023/07/06 15:48:12;;;;;;;5.20;2.63;;;;;;;;;;5059876;28;20051;-73
2023/07/06 15:51:15;;;;;;;7.00;1.95;;;;;;;;;;5066019;28;20486;-68
2023/07/06 15:54:01;;;;;;;5.90;3.08;;;;;;;;;;5047292;28;20129;-67
2023/07/06 15:56:46;;;;;;;8.27;2.50;;;;;;;;;;5070712;28;20025;-67
2023/07/06 15:59:31;;;;;;;3.70;2.10;;;;;;;;;;5049797;28;20033;-67
2023/07/06 16:02:16;;;;;;;6.32;3.13;;;;;;;;;;5063212;28;20031;-74
2023/07/06 16:05:05;;;;;;;6.90;2.95;;;;;;;;;;5076273;28;20372;-68
2023/07/06 16:07:50;;;;;;;4.97;2.33;;;;;;;;;;5053058;28;20060;-71
2023/07/06 16:10:38;;;;;;;8.00;2.50;;;;;;;;;;5061929;28;20040;-68
2023/07/06 16:13:23;;;;;;;4.05;2.20;;;;;;;;;;5052419;28;20090;-69
2023/07/06 16:16:08;;;;;;;5.18;2.13;;;;;;;;;;5050418;28;20476;-69
2023/07/06 16:18:53;;;;;;;4.93;2.50;;;;;;;;;;5056875;28;20040;-69
2023/07/06 16:21:39;;;;;;;3.47;1.83;;;;;;;;;;5066419;28;20203;-68
2023/07/06 16:24:24;;;;;;;6.38;2.88;;;;;;;;;;5039457;28;20460;-72
2023/07/06 16:27:10;;;;;;;5.25;2.17;;;;;;;;;;5061953;28;20028;-71
2023/07/06 16:29:55;;;;;;;7.63;2.42;;;;;;;;;;5056550;28;20040;-71
2023/07/06 16:32:40;;;;;;;3.30;2.42;;;;;;;;;;5052710;28;20021;-72
2023/07/06 16:35:25;;;;;;;5.32;2.40;;;;;;;;;;5063444;28;20521;-72
2023/07/06 16:38:10;;;;;;;5.22;1.90;;;;;;;;;;5064700;28;20028;-73
2023/07/06 16:40:59;;;;;;;4.82;2.38;;;;;;;;;;5048061;28;20021;-71
2023/07/06 16:43:45;;;;;;;6.75;2.65;;;;;;;;;;5060292;28;20027;-77